sensor_id;sensor_type;location;lat;lon;timestamp;temperature;humidity
4677;DHT22;2352;48.180;11.478;2023-09-07T00:02:01;17.50;99.90
4677;DHT22;2352;48.180;11.478;2023-09-07T00:05:06;17.50;99.90
4677;DHT22;2352;48.180;11.478;2023-09-07T00:08:10;17.50;99.90
4677;DHT22;2352;48.180;11.478;2023-09-07T00:11:13;17.50;99.90
4677;DHT22;2352;48.180;11.478;2023-09-07T00:14:18;17.60;99.90
4677;DHT22;2352;48.180;11.478;2023-09-07T00:17:21;17.50;99.90
4677;DHT22;2352;48.180;11.478;2023-09-07T00:20:24;17.50;99.90
4677;DHT22;2352;48.180;11.478;2023-09-07T00:23:28;17.50;99.90
4677;DHT22;2352;48.180;11.478;2023-09-07T00:26:32;17.40;99.90
4677;DHT22;2352;48.180;11.478;2023-09-07T00:29:36;17.40;99.90
4677;DHT22;2352;48.180;11.478;2023-09-07T00:32:39;17.40;99.90
4677;DHT22;2352;48.180;11.478;2023-09-07T00:35:42;17.40;99.90
4677;DHT22;2352;48.180;11.478;2023-09-07T00:38:46;17.40;99.90
4677;DHT22;2352;48.180;11.478;2023-09-07T00:41:49;17.30;99.90
4677;DHT22;2352;48.180;11.478;2023-09-07T00:44:53;17.20;99.90
4677;DHT22;2352;48.180;11.478;2023-09-07T00:47:56;17.20;99.90
4677;DHT22;2352;48.180;11.478;2023-09-07T00:51:00;17.10;99.90
4677;DHT22;2352;48.180;11.478;2023-09-07T00:54:03;17.10;99.90
4677;DHT22;2352;48.180;11.478;2023-09-07T00:57:06;17.10;99.90
4677;DHT22;2352;48.180;11.478;2023-09-07T01:00:12;17.10;99.90
4677;DHT22;2352;48.180;11.478;2023-09-07T01:03:15;17.00;99.90
4677;DHT22;2352;48.180;11.478;2023-09-07T01:06:22;17.10;99.90
4677;DHT22;2352;48.180;11.478;2023-09-07T01:09:30;17.00;99.90
4677;DHT22;2352;48.180;11.478;2023-09-07T01:12:34;16.90;99.90
4677;DHT22;2352;48.180;11.478;2023-09-07T01:15:39;16.80;99.90
4677;DHT22;2352;48.180;11.478;2023-09-07T01:18:42;16.70;99.90
4677;DHT22;2352;48.180;11.478;2023-09-07T01:21:47;16.70;99.90
4677;DHT22;2352;48.180;11.478;2023-09-07T01:24:51;16.60;99.90
4677;DHT22;2352;48.180;11.478;2023-09-07T01:27:55;16.60;99.90
4677;DHT22;2352;48.180;11.478;2023-09-07T01:30:58;16.60;99.90
4677;DHT22;2352;48.180;11.478;2023-09-07T01:34:01;16.50;99.90
4677;DHT22;2352;48.180;11.478;2023-09-07T01:37:05;16.40;99.90
4677;DHT22;2352;48.180;11.478;2023-09-07T01:40:08;16.40;99.90
4677;DHT22;2352;48.180;11.478;2023-09-07T01:43:12;16.30;99.90
4677;DHT22;2352;48.180;11.478;2023-09-07T01:46:15;16.20;99.90
4677;DHT22;2352;48.180;11.478;2023-09-07T01:49:18;16.10;99.90
4677;DHT22;2352;48.180;11.478;2023-09-07T01:52:22;16.20;99.90
4677;DHT22;2352;48.180;11.478;2023-09-07T01:55:27;16.20;99.90
4677;DHT22;2352;48.180;11.478;2023-09-07T01:58:30;16.20;99.90
4677;DHT22;2352;48.180;11.478;2023-09-07T02:01:33;16.20;99.90
4677;DHT22;2352;48.180;11.478;2023-09-07T02:04:39;16.10;99.90
4677;DHT22;2352;48.180;11.478;2023-09-07T02:07:44;16.10;99.90
4677;DHT22;2352;48.180;11.478;2023-09-07T02:10:47;16.10;99.90
4677;DHT22;2352;48.180;11.478;2023-09-07T02:13:50;16.00;99.90
4677;DHT22;2352;48.180;11.478;2023-09-07T02:16:53;16.00;99.90
4677;DHT22;2352;48.180;11.478;2023-09-07T02:19:56;16.00;99.90
4677;DHT22;2352;48.180;11.478;2023-09-07T02:23:00;16.00;99.90
4677;DHT22;2352;48.180;11.478;2023-09-07T02:26:04;15.90;99.90
4677;DHT22;2352;48.180;11.478;2023-09-07T02:29:07;15.90;99.90
4677;DHT22;2352;48.180;11.478;2023-09-07T02:32:10;15.90;99.90
4677;DHT22;2352;48.180;11.478;2023-09-07T02:35:14;15.90;99.90
4677;DHT22;2352;48.180;11.478;2023-09-07T02:38:18;15.90;99.90
4677;DHT22;2352;48.180;11.478;2023-09-07T02:41:22;15.80;99.90
4677;DHT22;2352;48.180;11.478;2023-09-07T02:44:25;15.80;99.90
4677;DHT22;2352;48.180;11.478;2023-09-07T02:47:28;15.80;99.90
4677;DHT22;2352;48.180;11.478;2023-09-07T02:50:34;15.70;99.90
4677;DHT22;2352;48.180;11.478;2023-09-07T02:53:38;15.70;99.90
4677;DHT22;2352;48.180;11.478;2023-09-07T02:56:41;15.60;99.90
4677;DHT22;2352;48.180;11.478;2023-09-07T02:59:44;15.70;99.90
4677;DHT22;2352;48.180;11.478;2023-09-07T03:02:48;15.60;99.90
4677;DHT22;2352;48.180;11.478;2023-09-07T03:05:51;15.60;99.90
4677;DHT22;2352;48.180;11.478;2023-09-07T03:08:55;15.60;99.90
4677;DHT22;2352;48.180;11.478;2023-09-07T03:11:58;15.60;99.90
4677;DHT22;2352;48.180;11.478;2023-09-07T03:15:01;15.50;99.90
4677;DHT22;2352;48.180;11.478;2023-09-07T03:18:05;15.50;99.90
4677;DHT22;2352;48.180;11.478;2023-09-07T03:21:08;15.50;99.90
4677;DHT22;2352;48.180;11.478;2023-09-07T03:24:13;15.50;99.90
4677;DHT22;2352;48.180;11.478;2023-09-07T03:27:17;15.40;99.90
4677;DHT22;2352;48.180;11.478;2023-09-07T03:30:20;15.40;99.90
4677;DHT22;2352;48.180;11.478;2023-09-07T03:33:23;15.40;99.90
4677;DHT22;2352;48.180;11.478;2023-09-07T03:36:26;15.40;99.90
4677;DHT22;2352;48.180;11.478;2023-09-07T03:39:31;15.30;99.90
4677;DHT22;2352;48.180;11.478;2023-09-07T03:42:33;15.30;99.90
4677;DHT22;2352;48.180;11.478;2023-09-07T03:45:37;15.30;99.90
4677;DHT22;2352;48.180;11.478;2023-09-07T03:48:40;15.40;99.90
4677;DHT22;2352;48.180;11.478;2023-09-07T03:51:43;15.30;99.90
4677;DHT22;2352;48.180;11.478;2023-09-07T03:54:47;15.30;99.90
4677;DHT22;2352;48.180;11.478;2023-09-07T03:57:51;15.30;99.90
4677;DHT22;2352;48.180;11.478;2023-09-07T04:00:54;15.30;99.90
4677;DHT22;2352;48.180;11.478;2023-09-07T04:03:57;15.30;99.90
4677;DHT22;2352;48.180;11.478;2023-09-07T04:07:00;15.20;99.90
4677;DHT22;2352;48.180;11.478;2023-09-07T04:10:05;15.20;99.90
4677;DHT22;2352;48.180;11.478;2023-09-07T04:13:08;15.20;99.90
4677;DHT22;2352;48.180;11.478;2023-09-07T04:16:12;15.10;99.90
4677;DHT22;2352;48.180;11.478;2023-09-07T04:19:15;15.10;99.90
4677;DHT22;2352;48.180;11.478;2023-09-07T04:22:17;15.10;99.90
4677;DHT22;2352;48.180;11.478;2023-09-07T04:25:22;15.10;99.90
4677;DHT22;2352;48.180;11.478;2023-09-07T04:28:25;15.10;99.90
4677;DHT22;2352;48.180;11.478;2023-09-07T04:31:28;15.10;99.90
4677;DHT22;2352;48.180;11.478;2023-09-07T04:34:31;15.10;99.90
4677;DHT22;2352;48.180;11.478;2023-09-07T04:37:34;15.00;99.90
4677;DHT22;2352;48.180;11.478;2023-09-07T04:40:38;15.00;99.90
4677;DHT22;2352;48.180;11.478;2023-09-07T04:43:42;15.00;99.90
4677;DHT22;2352;48.180;11.478;2023-09-07T04:46:46;15.00;99.90
4677;DHT22;2352;48.180;11.478;2023-09-07T04:49:49;15.00;99.90
4677;DHT22;2352;48.180;11.478;2023-09-07T04:52:53;15.00;99.90
4677;DHT22;2352;48.180;11.478;2023-09-07T04:55:57;15.00;99.90
4677;DHT22;2352;48.180;11.478;2023-09-07T04:59:00;15.00;99.90
4677;DHT22;2352;48.180;11.478;2023-09-07T05:02:03;15.00;99.90
4677;DHT22;2352;48.180;11.478;2023-09-07T05:05:07;15.00;99.90
4677;DHT22;2352;48.180;11.478;2023-09-07T05:08:10;15.00;99.90
4677;DHT22;2352;48.180;11.478;2023-09-07T05:11:14;15.10;99.90
4677;DHT22;2352;48.180;11.478;2023-09-07T05:14:17;15.10;99.90
4677;DHT22;2352;48.180;11.478;2023-09-07T05:17:20;15.10;99.90
4677;DHT22;2352;48.180;11.478;2023-09-07T05:20:23;15.10;99.90
4677;DHT22;2352;48.180;11.478;2023-09-07T05:23:26;15.00;99.90
4677;DHT22;2352;48.180;11.478;2023-09-07T05:26:31;15.30;99.90
4677;DHT22;2352;48.180;11.478;2023-09-07T05:29:34;15.20;99.90
4677;DHT22;2352;48.180;11.478;2023-09-07T05:32:37;15.30;99.90
4677;DHT22;2352;48.180;11.478;2023-09-07T05:35:41;15.30;99.90
4677;DHT22;2352;48.180;11.478;2023-09-07T05:38:44;15.30;99.90
4677;DHT22;2352;48.180;11.478;2023-09-07T05:41:50;15.30;99.90
4677;DHT22;2352;48.180;11.478;2023-09-07T05:44:53;15.40;99.90
4677;DHT22;2352;48.180;11.478;2023-09-07T05:47:56;15.50;99.90
4677;DHT22;2352;48.180;11.478;2023-09-07T05:50:59;15.50;99.90
4677;DHT22;2352;48.180;11.478;2023-09-07T05:54:02;15.60;99.90
4677;DHT22;2352;48.180;11.478;2023-09-07T05:57:07;15.70;99.90
4677;DHT22;2352;48.180;11.478;2023-09-07T06:00:11;15.80;99.90
4677;DHT22;2352;48.180;11.478;2023-09-07T06:03:14;15.90;99.90
4677;DHT22;2352;48.180;11.478;2023-09-07T06:06:17;16.00;99.90
4677;DHT22;2352;48.180;11.478;2023-09-07T06:09:20;16.10;99.90
4677;DHT22;2352;48.180;11.478;2023-09-07T06:12:25;16.70;99.90
4677;DHT22;2352;48.180;11.478;2023-09-07T06:15:29;16.60;99.90
4677;DHT22;2352;48.180;11.478;2023-09-07T06:18:32;16.60;99.90
4677;DHT22;2352;48.180;11.478;2023-09-07T06:21:35;16.70;99.90
4677;DHT22;2352;48.180;11.478;2023-09-07T06:24:39;16.90;99.90
4677;DHT22;2352;48.180;11.478;2023-09-07T06:27:43;17.00;99.90
4677;DHT22;2352;48.180;11.478;2023-09-07T06:30:46;17.00;99.90
4677;DHT22;2352;48.180;11.478;2023-09-07T06:33:49;17.10;99.90
4677;DHT22;2352;48.180;11.478;2023-09-07T06:36:52;17.20;99.90
4677;DHT22;2352;48.180;11.478;2023-09-07T06:39:55;17.50;99.90
4677;DHT22;2352;48.180;11.478;2023-09-07T06:43:00;17.60;99.90
4677;DHT22;2352;48.180;11.478;2023-09-07T06:46:08;17.70;99.90
4677;DHT22;2352;48.180;11.478;2023-09-07T06:49:12;17.80;99.90
4677;DHT22;2352;48.180;11.478;2023-09-07T06:52:15;17.80;99.90
4677;DHT22;2352;48.180;11.478;2023-09-07T06:55:18;18.00;99.90
4677;DHT22;2352;48.180;11.478;2023-09-07T06:58:23;18.10;99.90
4677;DHT22;2352;48.180;11.478;2023-09-07T07:01:26;18.20;99.90
4677;DHT22;2352;48.180;11.478;2023-09-07T07:04:29;18.30;99.90
4677;DHT22;2352;48.180;11.478;2023-09-07T07:07:33;18.50;99.90
4677;DHT22;2352;48.180;11.478;2023-09-07T07:10:36;18.60;99.90
4677;DHT22;2352;48.180;11.478;2023-09-07T07:13:41;18.70;99.90
4677;DHT22;2352;48.180;11.478;2023-09-07T07:16:44;18.90;99.90
4677;DHT22;2352;48.180;11.478;2023-09-07T07:19:47;19.00;99.90
4677;DHT22;2352;48.180;11.478;2023-09-07T07:22:50;19.00;99.90
4677;DHT22;2352;48.180;11.478;2023-09-07T07:25:53;19.10;99.90
4677;DHT22;2352;48.180;11.478;2023-09-07T07:28:58;19.30;99.90
4677;DHT22;2352;48.180;11.478;2023-09-07T07:32:01;19.40;99.90
4677;DHT22;2352;48.180;11.478;2023-09-07T07:35:04;19.60;99.90
4677;DHT22;2352;48.180;11.478;2023-09-07T07:38:08;19.70;99.90
4677;DHT22;2352;48.180;11.478;2023-09-07T07:41:11;19.80;99.90
4677;DHT22;2352;48.180;11.478;2023-09-07T07:44:16;19.90;99.90
4677;DHT22;2352;48.180;11.478;2023-09-07T07:47:19;20.10;99.90
4677;DHT22;2352;48.180;11.478;2023-09-07T07:50:22;20.10;99.90
4677;DHT22;2352;48.180;11.478;2023-09-07T07:53:25;20.30;99.90
4677;DHT22;2352;48.180;11.478;2023-09-07T07:56:28;20.30;99.90
4677;DHT22;2352;48.180;11.478;2023-09-07T07:59:36;20.40;99.90
4677;DHT22;2352;48.180;11.478;2023-09-07T08:02:39;20.60;99.90
4677;DHT22;2352;48.180;11.478;2023-09-07T08:05:42;20.60;99.90
4677;DHT22;2352;48.180;11.478;2023-09-07T08:08:45;20.70;99.90
4677;DHT22;2352;48.180;11.478;2023-09-07T08:11:48;20.90;99.90
4677;DHT22;2352;48.180;11.478;2023-09-07T08:14:53;21.00;99.90
4677;DHT22;2352;48.180;11.478;2023-09-07T08:17:57;21.30;99.90
4677;DHT22;2352;48.180;11.478;2023-09-07T08:21:01;21.40;99.90
4677;DHT22;2352;48.180;11.478;2023-09-07T08:24:04;21.50;99.90
4677;DHT22;2352;48.180;11.478;2023-09-07T08:27:08;21.50;99.90
4677;DHT22;2352;48.180;11.478;2023-09-07T08:30:15;21.50;99.90
4677;DHT22;2352;48.180;11.478;2023-09-07T08:33:19;21.70;99.90
4677;DHT22;2352;48.180;11.478;2023-09-07T08:36:24;21.80;99.90
4677;DHT22;2352;48.180;11.478;2023-09-07T08:39:30;21.90;99.90
4677;DHT22;2352;48.180;11.478;2023-09-07T08:42:33;22.10;99.90
4677;DHT22;2352;48.180;11.478;2023-09-07T08:45:46;22.00;99.90
4677;DHT22;2352;48.180;11.478;2023-09-07T08:48:52;22.10;99.90
4677;DHT22;2352;48.180;11.478;2023-09-07T08:51:59;22.20;99.90
4677;DHT22;2352;48.180;11.478;2023-09-07T08:55:03;22.30;99.90
4677;DHT22;2352;48.180;11.478;2023-09-07T08:58:06;22.20;99.80
4677;DHT22;2352;48.180;11.478;2023-09-07T09:01:11;22.30;99.90
4677;DHT22;2352;48.180;11.478;2023-09-07T09:04:15;22.50;99.80
4677;DHT22;2352;48.180;11.478;2023-09-07T09:07:18;22.60;99.80
4677;DHT22;2352;48.180;11.478;2023-09-07T09:10:23;22.80;99.60
4677;DHT22;2352;48.180;11.478;2023-09-07T09:13:30;22.90;99.20
4677;DHT22;2352;48.180;11.478;2023-09-07T09:16:37;23.10;99.00
4677;DHT22;2352;48.180;11.478;2023-09-07T09:19:41;23.40;98.70
4677;DHT22;2352;48.180;11.478;2023-09-07T09:22:44;23.50;98.60
4677;DHT22;2352;48.180;11.478;2023-09-07T09:25:48;23.70;97.90
4677;DHT22;2352;48.180;11.478;2023-09-07T09:28:51;23.90;97.50
4677;DHT22;2352;48.180;11.478;2023-09-07T09:31:56;23.80;97.30
4677;DHT22;2352;48.180;11.478;2023-09-07T09:34:59;23.90;96.70
4677;DHT22;2352;48.180;11.478;2023-09-07T09:38:04;24.10;97.40
4677;DHT22;2352;48.180;11.478;2023-09-07T09:41:09;24.10;97.20
4677;DHT22;2352;48.180;11.478;2023-09-07T09:44:13;24.20;97.10
4677;DHT22;2352;48.180;11.478;2023-09-07T09:47:20;24.20;96.70
4677;DHT22;2352;48.180;11.478;2023-09-07T09:50:24;24.20;97.20
4677;DHT22;2352;48.180;11.478;2023-09-07T09:53:27;24.30;96.90
4677;DHT22;2352;48.180;11.478;2023-09-07T09:56:31;24.40;96.60
4677;DHT22;2352;48.180;11.478;2023-09-07T09:59:34;24.50;96.40
4677;DHT22;2352;48.180;11.478;2023-09-07T10:02:39;24.70;96.20
4677;DHT22;2352;48.180;11.478;2023-09-07T10:05:44;24.70;95.50
4677;DHT22;2352;48.180;11.478;2023-09-07T10:08:59;24.80;96.10
4677;DHT22;2352;48.180;11.478;2023-09-07T10:12:03;25.00;95.70
4677;DHT22;2352;48.180;11.478;2023-09-07T10:15:23;25.20;95.80
4677;DHT22;2352;48.180;11.478;2023-09-07T10:18:33;25.40;95.50
4677;DHT22;2352;48.180;11.478;2023-09-07T10:21:40;25.50;94.90
4677;DHT22;2352;48.180;11.478;2023-09-07T10:24:43;25.50;94.60
4677;DHT22;2352;48.180;11.478;2023-09-07T10:27:48;25.30;94.70
4677;DHT22;2352;48.180;11.478;2023-09-07T10:31:02;25.40;94.60
4677;DHT22;2352;48.180;11.478;2023-09-07T10:34:10;25.50;94.60
4677;DHT22;2352;48.180;11.478;2023-09-07T10:37:14;25.70;94.70
4677;DHT22;2352;48.180;11.478;2023-09-07T10:40:21;25.90;93.90
4677;DHT22;2352;48.180;11.478;2023-09-07T10:43:25;26.10;94.50
4677;DHT22;2352;48.180;11.478;2023-09-07T10:46:29;26.20;93.00
4677;DHT22;2352;48.180;11.478;2023-09-07T10:49:35;26.10;92.60
4677;DHT22;2352;48.180;11.478;2023-09-07T10:52:39;26.30;92.60
4677;DHT22;2352;48.180;11.478;2023-09-07T10:55:43;26.30;92.00
4677;DHT22;2352;48.180;11.478;2023-09-07T10:58:46;26.30;92.80
4677;DHT22;2352;48.180;11.478;2023-09-07T11:01:53;26.50;92.50
4677;DHT22;2352;48.180;11.478;2023-09-07T11:04:57;26.80;92.60
4677;DHT22;2352;48.180;11.478;2023-09-07T11:08:00;26.90;92.00
4677;DHT22;2352;48.180;11.478;2023-09-07T11:11:04;27.10;92.10
4677;DHT22;2352;48.180;11.478;2023-09-07T11:14:07;27.30;92.30
4677;DHT22;2352;48.180;11.478;2023-09-07T11:17:10;27.40;92.10
4677;DHT22;2352;48.180;11.478;2023-09-07T11:20:15;27.40;91.50
4677;DHT22;2352;48.180;11.478;2023-09-07T11:23:18;27.60;91.30
4677;DHT22;2352;48.180;11.478;2023-09-07T11:26:22;27.60;90.80
4677;DHT22;2352;48.180;11.478;2023-09-07T11:29:25;27.60;90.70
4677;DHT22;2352;48.180;11.478;2023-09-07T11:32:33;27.70;90.60
4677;DHT22;2352;48.180;11.478;2023-09-07T11:35:38;28.00;91.40
4677;DHT22;2352;48.180;11.478;2023-09-07T11:38:43;28.00;89.60
4677;DHT22;2352;48.180;11.478;2023-09-07T11:41:47;28.10;90.20
4677;DHT22;2352;48.180;11.478;2023-09-07T11:44:50;28.00;88.60
4677;DHT22;2352;48.180;11.478;2023-09-07T11:47:53;28.20;89.90
4677;DHT22;2352;48.180;11.478;2023-09-07T11:50:58;28.10;88.90
4677;DHT22;2352;48.180;11.478;2023-09-07T11:54:01;28.40;88.90
4677;DHT22;2352;48.180;11.478;2023-09-07T11:57:04;28.30;86.90
4677;DHT22;2352;48.180;11.478;2023-09-07T12:00:08;28.60;88.00
4677;DHT22;2352;48.180;11.478;2023-09-07T12:03:12;28.70;84.50
4677;DHT22;2352;48.180;11.478;2023-09-07T12:06:17;28.60;84.80
4677;DHT22;2352;48.180;11.478;2023-09-07T12:09:20;28.90;82.70
4677;DHT22;2352;48.180;11.478;2023-09-07T12:12:23;29.10;82.30
4677;DHT22;2352;48.180;11.478;2023-09-07T12:15:26;29.30;83.80
4677;DHT22;2352;48.180;11.478;2023-09-07T12:18:29;29.30;79.30
4677;DHT22;2352;48.180;11.478;2023-09-07T12:21:34;29.50;80.90
4677;DHT22;2352;48.180;11.478;2023-09-07T12:24:37;29.70;80.60
4677;DHT22;2352;48.180;11.478;2023-09-07T12:27:40;29.60;78.40
4677;DHT22;2352;48.180;11.478;2023-09-07T12:30:55;30.00;81.20
4677;DHT22;2352;48.180;11.478;2023-09-07T12:33:58;29.90;76.70
4677;DHT22;2352;48.180;11.478;2023-09-07T12:37:03;29.90;76.70
4677;DHT22;2352;48.180;11.478;2023-09-07T12:40:07;30.10;77.70
4677;DHT22;2352;48.180;11.478;2023-09-07T12:43:14;30.20;75.60
4677;DHT22;2352;48.180;11.478;2023-09-07T12:46:17;30.20;76.50
4677;DHT22;2352;48.180;11.478;2023-09-07T12:49:20;30.20;73.90
4677;DHT22;2352;48.180;11.478;2023-09-07T12:52:25;30.10;73.40
4677;DHT22;2352;48.180;11.478;2023-09-07T12:55:28;30.40;73.80
4677;DHT22;2352;48.180;11.478;2023-09-07T12:58:31;30.40;73.20
4677;DHT22;2352;48.180;11.478;2023-09-07T13:01:34;30.60;74.20
4677;DHT22;2352;48.180;11.478;2023-09-07T13:04:37;30.50;72.20
4677;DHT22;2352;48.180;11.478;2023-09-07T13:07:42;30.60;72.80
4677;DHT22;2352;48.180;11.478;2023-09-07T13:10:46;30.60;68.20
4677;DHT22;2352;48.180;11.478;2023-09-07T13:13:48;30.70;69.20
4677;DHT22;2352;48.180;11.478;2023-09-07T13:16:51;30.60;69.90
4677;DHT22;2352;48.180;11.478;2023-09-07T13:19:57;30.60;69.80
4677;DHT22;2352;48.180;11.478;2023-09-07T13:23:01;30.80;69.10
4677;DHT22;2352;48.180;11.478;2023-09-07T13:26:04;30.80;68.60
4677;DHT22;2352;48.180;11.478;2023-09-07T13:29:07;30.80;65.10
4677;DHT22;2352;48.180;11.478;2023-09-07T13:32:10;30.70;65.30
4677;DHT22;2352;48.180;11.478;2023-09-07T13:35:14;30.60;65.40
4677;DHT22;2352;48.180;11.478;2023-09-07T13:38:19;30.50;65.10
4677;DHT22;2352;48.180;11.478;2023-09-07T13:41:22;30.50;66.40
4677;DHT22;2352;48.180;11.478;2023-09-07T13:44:25;30.50;63.10
4677;DHT22;2352;48.180;11.478;2023-09-07T13:47:28;30.60;60.70
4677;DHT22;2352;48.180;11.478;2023-09-07T13:50:31;30.70;59.70
4677;DHT22;2352;48.180;11.478;2023-09-07T13:53:38;30.80;60.40
4677;DHT22;2352;48.180;11.478;2023-09-07T13:56:41;30.80;59.70
4677;DHT22;2352;48.180;11.478;2023-09-07T13:59:46;30.70;61.50
4677;DHT22;2352;48.180;11.478;2023-09-07T14:02:49;30.90;59.80
4677;DHT22;2352;48.180;11.478;2023-09-07T14:05:52;30.80;61.30
4677;DHT22;2352;48.180;11.478;2023-09-07T14:08:57;30.80;59.50
4677;DHT22;2352;48.180;11.478;2023-09-07T14:12:00;30.60;59.60
4677;DHT22;2352;48.180;11.478;2023-09-07T14:15:04;30.50;61.30
4677;DHT22;2352;48.180;11.478;2023-09-07T14:18:07;30.60;60.10
4677;DHT22;2352;48.180;11.478;2023-09-07T14:21:10;30.50;59.50
4677;DHT22;2352;48.180;11.478;2023-09-07T14:24:15;30.40;60.30
4677;DHT22;2352;48.180;11.478;2023-09-07T14:27:18;30.30;59.00
4677;DHT22;2352;48.180;11.478;2023-09-07T14:30:21;30.00;61.60
4677;DHT22;2352;48.180;11.478;2023-09-07T14:33:24;30.00;61.40
4677;DHT22;2352;48.180;11.478;2023-09-07T14:36:27;29.90;59.90
4677;DHT22;2352;48.180;11.478;2023-09-07T14:39:32;29.80;60.30
4677;DHT22;2352;48.180;11.478;2023-09-07T14:42:37;29.50;63.60
4677;DHT22;2352;48.180;11.478;2023-09-07T14:45:39;29.50;63.60
4677;DHT22;2352;48.180;11.478;2023-09-07T14:48:43;29.50;63.80
4677;DHT22;2352;48.180;11.478;2023-09-07T14:51:49;29.40;65.90
4677;DHT22;2352;48.180;11.478;2023-09-07T14:54:53;29.20;66.20
4677;DHT22;2352;48.180;11.478;2023-09-07T14:57:56;29.20;66.40
4677;DHT22;2352;48.180;11.478;2023-09-07T15:01:00;29.10;65.80
4677;DHT22;2352;48.180;11.478;2023-09-07T15:04:03;28.90;63.70
4677;DHT22;2352;48.180;11.478;2023-09-07T15:07:06;28.80;65.30
4677;DHT22;2352;48.180;11.478;2023-09-07T15:10:11;28.60;62.60
4677;DHT22;2352;48.180;11.478;2023-09-07T15:13:15;28.70;66.10
4677;DHT22;2352;48.180;11.478;2023-09-07T15:16:18;28.60;64.20
4677;DHT22;2352;48.180;11.478;2023-09-07T15:19:21;28.60;66.20
4677;DHT22;2352;48.180;11.478;2023-09-07T15:22:24;28.60;65.20
4677;DHT22;2352;48.180;11.478;2023-09-07T15:25:29;28.40;63.70
4677;DHT22;2352;48.180;11.478;2023-09-07T15:28:32;28.30;64.20
4677;DHT22;2352;48.180;11.478;2023-09-07T15:31:36;28.20;65.50
4677;DHT22;2352;48.180;11.478;2023-09-07T15:34:42;28.00;65.50
4677;DHT22;2352;48.180;11.478;2023-09-07T15:37:45;28.10;66.20
4677;DHT22;2352;48.180;11.478;2023-09-07T15:40:50;28.00;65.50
4677;DHT22;2352;48.180;11.478;2023-09-07T15:43:54;28.10;66.20
4677;DHT22;2352;48.180;11.478;2023-09-07T15:46:57;28.10;66.00
4677;DHT22;2352;48.180;11.478;2023-09-07T15:50:01;28.00;66.20
4677;DHT22;2352;48.180;11.478;2023-09-07T15:53:04;27.80;65.90
4677;DHT22;2352;48.180;11.478;2023-09-07T15:56:11;27.80;64.80
4677;DHT22;2352;48.180;11.478;2023-09-07T15:59:14;27.80;65.70
4677;DHT22;2352;48.180;11.478;2023-09-07T16:02:17;27.80;66.10
4677;DHT22;2352;48.180;11.478;2023-09-07T16:05:20;27.80;65.80
4677;DHT22;2352;48.180;11.478;2023-09-07T16:08:25;27.60;66.90
4677;DHT22;2352;48.180;11.478;2023-09-07T16:11:31;27.50;65.00
4677;DHT22;2352;48.180;11.478;2023-09-07T16:14:34;27.50;65.60
4677;DHT22;2352;48.180;11.478;2023-09-07T16:17:38;27.40;64.00
4677;DHT22;2352;48.180;11.478;2023-09-07T16:20:41;27.40;65.80
4677;DHT22;2352;48.180;11.478;2023-09-07T16:23:45;27.40;65.40
4677;DHT22;2352;48.180;11.478;2023-09-07T16:26:50;27.30;66.90
4677;DHT22;2352;48.180;11.478;2023-09-07T16:29:53;27.30;67.60
4677;DHT22;2352;48.180;11.478;2023-09-07T16:32:56;27.10;68.70
4677;DHT22;2352;48.180;11.478;2023-09-07T16:35:59;27.10;68.50
4677;DHT22;2352;48.180;11.478;2023-09-07T16:39:03;27.00;69.70
4677;DHT22;2352;48.180;11.478;2023-09-07T16:42:07;26.90;68.80
4677;DHT22;2352;48.180;11.478;2023-09-07T16:45:10;26.90;67.50
4677;DHT22;2352;48.180;11.478;2023-09-07T16:48:13;26.80;67.60
4677;DHT22;2352;48.180;11.478;2023-09-07T16:51:16;26.70;68.70
4677;DHT22;2352;48.180;11.478;2023-09-07T16:54:19;26.70;67.50
4677;DHT22;2352;48.180;11.478;2023-09-07T16:57:23;26.60;68.90
4677;DHT22;2352;48.180;11.478;2023-09-07T17:00:27;26.60;70.90
4677;DHT22;2352;48.180;11.478;2023-09-07T17:03:30;26.50;70.30
4677;DHT22;2352;48.180;11.478;2023-09-07T17:06:34;26.40;70.60
4677;DHT22;2352;48.180;11.478;2023-09-07T17:09:37;26.30;71.60
4677;DHT22;2352;48.180;11.478;2023-09-07T17:12:42;26.20;71.80
4677;DHT22;2352;48.180;11.478;2023-09-07T17:15:47;26.10;72.50
4677;DHT22;2352;48.180;11.478;2023-09-07T17:18:50;25.90;73.30
4677;DHT22;2352;48.180;11.478;2023-09-07T17:21:53;25.70;74.50
4677;DHT22;2352;48.180;11.478;2023-09-07T17:24:56;25.40;76.70
4677;DHT22;2352;48.180;11.478;2023-09-07T17:28:01;25.30;77.60
4677;DHT22;2352;48.180;11.478;2023-09-07T17:31:04;25.20;77.90
4677;DHT22;2352;48.180;11.478;2023-09-07T17:34:14;25.10;79.30
4677;DHT22;2352;48.180;11.478;2023-09-07T17:37:17;24.90;80.00
4677;DHT22;2352;48.180;11.478;2023-09-07T17:40:20;24.80;81.40
4677;DHT22;2352;48.180;11.478;2023-09-07T17:43:25;24.60;81.60
4677;DHT22;2352;48.180;11.478;2023-09-07T17:46:28;24.40;83.30
4677;DHT22;2352;48.180;11.478;2023-09-07T17:49:32;24.30;85.10
4677;DHT22;2352;48.180;11.478;2023-09-07T17:52:35;24.10;86.00
4677;DHT22;2352;48.180;11.478;2023-09-07T17:55:38;23.90;86.20
4677;DHT22;2352;48.180;11.478;2023-09-07T17:58:44;23.90;86.50
4677;DHT22;2352;48.180;11.478;2023-09-07T18:01:48;23.80;87.30
4677;DHT22;2352;48.180;11.478;2023-09-07T18:04:53;23.60;88.50
4677;DHT22;2352;48.180;11.478;2023-09-07T18:07:56;23.50;88.30
4677;DHT22;2352;48.180;11.478;2023-09-07T18:11:00;23.40;88.90
4677;DHT22;2352;48.180;11.478;2023-09-07T18:14:05;23.30;89.10
4677;DHT22;2352;48.180;11.478;2023-09-07T18:17:14;23.20;90.00
4677;DHT22;2352;48.180;11.478;2023-09-07T18:20:18;23.00;90.40
4677;DHT22;2352;48.180;11.478;2023-09-07T18:23:21;23.00;90.90
4677;DHT22;2352;48.180;11.478;2023-09-07T18:26:26;22.90;90.90
4677;DHT22;2352;48.180;11.478;2023-09-07T18:29:30;22.80;91.30
4677;DHT22;2352;48.180;11.478;2023-09-07T18:32:36;22.70;91.60
4677;DHT22;2352;48.180;11.478;2023-09-07T18:35:39;22.60;91.80
4677;DHT22;2352;48.180;11.478;2023-09-07T18:38:42;22.60;91.80
4677;DHT22;2352;48.180;11.478;2023-09-07T18:41:45;22.50;92.20
4677;DHT22;2352;48.180;11.478;2023-09-07T18:44:52;22.40;92.80
4677;DHT22;2352;48.180;11.478;2023-09-07T18:47:55;22.30;93.00
4677;DHT22;2352;48.180;11.478;2023-09-07T18:51:01;22.20;93.30
4677;DHT22;2352;48.180;11.478;2023-09-07T18:54:05;22.10;93.70
4677;DHT22;2352;48.180;11.478;2023-09-07T18:57:08;22.10;93.80
4677;DHT22;2352;48.180;11.478;2023-09-07T19:00:13;22.00;94.00
4677;DHT22;2352;48.180;11.478;2023-09-07T19:03:17;21.90;94.20
4677;DHT22;2352;48.180;11.478;2023-09-07T19:06:20;21.80;94.30
4677;DHT22;2352;48.180;11.478;2023-09-07T19:09:24;21.70;94.80
4677;DHT22;2352;48.180;11.478;2023-09-07T19:12:27;21.60;95.20
4677;DHT22;2352;48.180;11.478;2023-09-07T19:15:31;21.60;95.30
4677;DHT22;2352;48.180;11.478;2023-09-07T19:18:34;21.50;95.10
4677;DHT22;2352;48.180;11.478;2023-09-07T19:21:37;21.50;95.60
4677;DHT22;2352;48.180;11.478;2023-09-07T19:24:41;21.40;95.60
4677;DHT22;2352;48.180;11.478;2023-09-07T19:27:43;21.30;95.90
4677;DHT22;2352;48.180;11.478;2023-09-07T19:30:48;21.20;96.30
4677;DHT22;2352;48.180;11.478;2023-09-07T19:33:52;20.80;96.40
4677;DHT22;2352;48.180;11.478;2023-09-07T19:36:55;21.10;96.50
4677;DHT22;2352;48.180;11.478;2023-09-07T19:39:58;21.10;97.00